createdAt,value
2023-02-23T00:02:20.371Z,100.00
2023-02-23T00:04:48.263Z,99.55
2023-02-23T00:07:19.663Z,100.00
2023-02-23T00:09:47.697Z,99.79
2023-02-23T00:12:17.830Z,100.00
2023-02-23T00:14:46.421Z,99.35
2023-02-23T00:17:15.397Z,100.00
2023-02-23T00:19:45.834Z,99.28
2023-02-23T00:22:12.858Z,99.72
2023-02-23T00:24:43.672Z,98.97
2023-02-23T00:27:17.650Z,99.61
2023-02-23T00:29:49.862Z,99.66
2023-02-23T00:32:20.668Z,99.37
2023-02-23T00:34:51.754Z,99.98
2023-02-23T00:37:20.543Z,99.03
2023-02-23T00:39:48.841Z,98.26
2023-02-23T00:42:17.761Z,98.50
2023-02-23T00:44:47.645Z,99.57
2023-02-23T00:47:16.168Z,99.37
2023-02-23T00:49:45.327Z,98.65
2023-02-23T00:52:15.619Z,97.64
2023-02-23T00:54:42.513Z,97.85
2023-02-23T00:57:09.446Z,98.30
2023-02-23T00:59:37.549Z,97.83
2023-02-23T01:02:06.239Z,97.63
2023-02-23T01:04:34.427Z,98.96
2023-02-23T01:07:04.325Z,98.77
2023-02-23T01:09:32.260Z,99.06
2023-02-23T01:12:03.349Z,98.32
2023-02-23T01:14:32.961Z,98.86
2023-02-23T01:17:01.391Z,98.12
2023-02-23T01:19:34.320Z,98.88
2023-02-23T01:22:02.487Z,99.59
2023-02-23T01:24:31.097Z,98.94
2023-02-23T01:26:59.478Z,99.83
2023-02-23T01:29:28.169Z,99.08
2023-02-23T01:31:56.988Z,100.00
2023-02-23T01:34:26.627Z,100.00
2023-02-23T01:36:54.212Z,100.00
2023-02-23T01:39:22.834Z,100.00
2023-02-23T01:41:53.028Z,99.93
2023-02-23T01:44:21.686Z,100.00
2023-02-23T01:46:51.501Z,100.00
2023-02-23T01:49:26.983Z,100.00
2023-02-23T01:52:08.833Z,100.00
2023-02-23T01:54:40.206Z,100.00
2023-02-23T01:57:13.164Z,100.00
2023-02-23T01:59:45.624Z,100.00
2023-02-23T02:02:15.609Z,100.00
2023-02-23T02:04:45.058Z,100.00
2023-02-23T02:07:16.255Z,100.00
2023-02-23T02:10:05.699Z,100.00
2023-02-23T02:12:34.932Z,100.00
2023-02-23T02:15:06.421Z,100.00
2023-02-23T02:18:03.746Z,100.00
2023-02-23T02:20:53.247Z,100.00
2023-02-23T02:23:53.474Z,98.74
2023-02-23T02:26:41.703Z,99.16
2023-02-23T02:29:22.831Z,97.84
2023-02-23T02:32:11.576Z,99.28
2023-02-23T02:35:12.437Z,99.58
2023-02-23T02:37:45.133Z,100.00
2023-02-23T02:40:26.932Z,100.00
2023-02-23T02:43:14.506Z,98.67
2023-02-23T02:46:06.599Z,99.59
2023-02-23T02:48:43.761Z,99.88
2023-02-23T02:51:24.833Z,100.00
2023-02-23T02:54:07.968Z,99.53
2023-02-23T02:56:40.902Z,99.65
2023-02-23T02:59:30.671Z,100.00
2023-02-23T03:02:15.007Z,100.00
2023-02-23T03:04:59.328Z,100.00
2023-02-23T03:07:51.703Z,100.00
2023-02-23T03:10:46.918Z,100.00
2023-02-23T03:13:58.926Z,100.00
2023-02-23T03:16:48.281Z,100.00
2023-02-23T03:19:46.100Z,100.00
2023-02-23T03:22:47.152Z,100.00
2023-02-23T03:25:36.657Z,100.00
2023-02-23T03:28:42.308Z,100.00
2023-02-23T03:31:31.577Z,100.00
2023-02-23T03:34:30.991Z,100.00
2023-02-23T03:37:25.853Z,100.00
2023-02-23T03:40:20.554Z,100.00
2023-02-23T03:43:08.218Z,100.00
2023-02-23T03:45:52.776Z,100.00
2023-02-23T03:48:36.068Z,100.00
2023-02-23T03:51:23.402Z,100.00
2023-02-23T03:54:13.743Z,100.00
2023-02-23T03:57:02.058Z,100.00
2023-02-23T03:59:50.773Z,100.00
2023-02-23T04:02:35.965Z,100.00
2023-02-23T04:05:24.725Z,100.00
2023-02-23T04:08:10.564Z,100.00
2023-02-23T04:11:02.004Z,100.00
2023-02-23T04:13:33.639Z,100.00
2023-02-23T04:16:05.429Z,100.00
2023-02-23T04:18:35.268Z,100.00
2023-02-23T04:21:08.361Z,100.00
2023-02-23T04:23:38.099Z,100.00
2023-02-23T04:26:05.379Z,100.00
2023-02-23T04:28:33.587Z,100.00
2023-02-23T04:31:03.106Z,100.00
2023-02-23T04:33:32.328Z,100.00
2023-02-23T04:36:01.565Z,100.00
2023-02-23T04:38:29.859Z,100.00
2023-02-23T04:40:57.985Z,100.00
2023-02-23T04:43:25.621Z,100.00
2023-02-23T04:45:54.932Z,100.00
2023-02-23T04:48:25.250Z,100.00
2023-02-23T04:50:55.045Z,100.00
2023-02-23T04:53:21.946Z,100.00
2023-02-23T04:55:48.918Z,100.00
2023-02-23T04:58:17.655Z,100.00
2023-02-23T05:00:47.283Z,100.00
2023-02-23T05:03:15.274Z,100.00
2023-02-23T05:05:43.888Z,100.00
2023-02-23T05:08:13.638Z,100.00
2023-02-23T05:10:42.899Z,100.00
2023-02-23T05:13:12.278Z,100.00
2023-02-23T05:15:41.544Z,100.00
2023-02-23T05:18:10.259Z,100.00
2023-02-23T05:20:38.220Z,100.00
2023-02-23T05:23:07.222Z,100.00
2023-02-23T05:25:36.308Z,100.00
2023-02-23T05:28:05.878Z,100.00
2023-02-23T05:30:37.629Z,100.00
2023-02-23T05:33:05.049Z,100.00
2023-02-23T05:35:33.438Z,100.00
2023-02-23T05:38:03.168Z,100.00
2023-02-23T05:40:32.389Z,100.00
2023-02-23T05:43:02.414Z,100.00
2023-02-23T05:45:31.166Z,100.00
2023-02-23T05:47:59.376Z,100.00
2023-02-23T05:50:29.063Z,100.00
2023-02-23T05:52:59.382Z,100.00
2023-02-23T05:55:27.862Z,100.00
2023-02-23T05:57:57.783Z,100.00
2023-02-23T06:00:25.723Z,100.00
2023-02-23T06:02:55.051Z,100.00
2023-02-23T06:05:22.889Z,100.00
2023-02-23T06:07:50.777Z,100.00
2023-02-23T06:10:19.670Z,100.00
2023-02-23T06:12:48.895Z,100.00
2023-02-23T06:15:16.535Z,100.00
2023-02-23T06:17:45.279Z,100.00
2023-02-23T06:20:15.424Z,100.00
2023-02-23T06:22:43.472Z,100.00
2023-02-23T06:25:12.998Z,100.00
2023-02-23T06:27:40.730Z,100.00
2023-02-23T06:30:09.444Z,100.00
2023-02-23T06:32:37.459Z,100.00
2023-02-23T06:35:07.442Z,100.00
2023-02-23T06:37:37.969Z,100.00
2023-02-23T06:40:07.538Z,100.00
2023-02-23T06:42:37.440Z,100.00
2023-02-23T06:45:06.434Z,100.00
2023-02-23T06:47:33.789Z,100.00
2023-02-23T06:50:02.348Z,100.00
2023-02-23T06:52:31.811Z,100.00
2023-02-23T06:55:03.047Z,100.00
2023-02-23T06:57:31.541Z,100.00
2023-02-23T07:00:00.434Z,100.00
2023-02-23T07:02:28.358Z,100.00
2023-02-23T07:04:57.810Z,100.00
2023-02-23T07:07:25.547Z,100.00
2023-02-23T07:09:53.923Z,100.00
2023-02-23T07:12:21.795Z,100.00
2023-02-23T07:14:51.549Z,100.00
2023-02-23T07:17:20.596Z,100.00
2023-02-23T07:19:47.421Z,100.00
2023-02-23T07:22:17.115Z,100.00
2023-02-23T07:24:47.042Z,100.00
2023-02-23T07:27:15.857Z,100.00
2023-02-23T07:29:44.226Z,100.00
2023-02-23T07:32:12.092Z,100.00
2023-02-23T07:34:40.566Z,100.00
2023-02-23T07:37:09.866Z,100.00
2023-02-23T07:39:39.907Z,100.00
2023-02-23T07:42:07.390Z,100.00
2023-02-23T07:44:36.994Z,100.00
2023-02-23T07:47:04.572Z,100.00
2023-02-23T07:49:33.444Z,100.00
2023-02-23T07:52:02.188Z,100.00
2023-02-23T07:54:31.984Z,100.00
2023-02-23T07:57:01.523Z,100.00
2023-02-23T07:59:29.726Z,100.00
2023-02-23T08:01:59.279Z,100.00
2023-02-23T08:04:27.993Z,100.00
2023-02-23T08:06:55.292Z,100.00
2023-02-23T08:09:22.634Z,100.00
2023-02-23T08:11:50.437Z,100.00
2023-02-23T08:14:22.082Z,100.00
2023-02-23T08:16:51.462Z,100.00
2023-02-23T08:19:23.957Z,100.00
2023-02-23T08:21:54.973Z,100.00
2023-02-23T08:24:23.432Z,100.00
2023-02-23T08:26:52.148Z,100.00
2023-02-23T08:29:22.119Z,100.00
2023-02-23T08:31:52.506Z,100.00
2023-02-23T08:34:21.579Z,100.00
2023-02-23T08:36:51.885Z,100.00
2023-02-23T08:39:20.128Z,100.00
2023-02-23T08:41:48.161Z,100.00
2023-02-23T08:44:15.090Z,100.00
2023-02-23T08:46:42.380Z,100.00
2023-02-23T08:49:12.287Z,100.00
2023-02-23T08:51:41.886Z,100.00
2023-02-23T08:54:14.426Z,100.00
2023-02-23T08:56:42.843Z,100.00
2023-02-23T08:59:13.732Z,100.00
2023-02-23T09:01:41.211Z,100.00
2023-02-23T09:04:08.239Z,100.00
2023-02-23T09:06:37.502Z,100.00
2023-02-23T09:09:06.617Z,100.00
2023-02-23T09:11:36.185Z,100.00
2023-02-23T09:14:04.077Z,100.00
2023-02-23T09:16:32.967Z,100.00
2023-02-23T09:19:02.304Z,100.00
2023-02-23T09:21:31.814Z,100.00
2023-02-23T09:24:00.484Z,100.00
2023-02-23T09:26:31.041Z,100.00
2023-02-23T09:29:00.620Z,100.00
2023-02-23T09:31:30.162Z,100.00
2023-02-23T09:34:02.654Z,100.00
2023-02-23T09:36:32.795Z,100.00
2023-02-23T09:39:03.426Z,100.00
2023-02-23T09:41:54.116Z,100.00
2023-02-23T09:44:39.813Z,100.00
2023-02-23T09:47:22.795Z,100.00
2023-02-23T09:49:53.477Z,100.00
2023-02-23T09:52:28.812Z,100.00
2023-02-23T09:54:59.779Z,100.00
2023-02-23T09:57:38.326Z,100.00
2023-02-23T10:00:25.380Z,100.00
2023-02-23T10:03:00.095Z,100.00
2023-02-23T10:05:34.337Z,100.00
2023-02-23T10:08:10.031Z,99.07
2023-02-23T10:10:50.047Z,99.03
2023-02-23T10:13:49.755Z,99.67
2023-02-23T10:16:23.350Z,98.40
2023-02-23T10:18:51.526Z,98.55
2023-02-23T10:21:32.879Z,98.45
2023-02-23T10:24:08.169Z,98.63
2023-02-23T10:26:44.911Z,97.92
2023-02-23T10:29:34.986Z,97.40
2023-02-23T10:32:14.128Z,97.25
2023-02-23T10:34:42.610Z,97.67
2023-02-23T10:37:13.262Z,98.05
2023-02-23T10:39:42.324Z,97.42
2023-02-23T10:42:19.040Z,98.12
2023-02-23T10:44:47.429Z,97.40
2023-02-23T10:47:21.405Z,96.98
2023-02-23T10:49:52.301Z,96.94
2023-02-23T10:52:22.857Z,95.83
2023-02-23T10:54:52.048Z,96.04
2023-02-23T10:57:26.936Z,95.39
2023-02-23T11:00:10.369Z,94.05
2023-02-23T11:02:37.720Z,92.98
2023-02-23T11:05:08.919Z,93.77
2023-02-23T11:07:38.733Z,94.05
2023-02-23T11:10:30.306Z,92.93
2023-02-23T11:12:57.754Z,92.95
2023-02-23T11:15:31.970Z,92.63
2023-02-23T11:18:08.373Z,91.69
2023-02-23T11:20:40.573Z,92.07
2023-02-23T11:23:18.008Z,92.46
2023-02-23T11:25:49.423Z,92.82
2023-02-23T11:28:31.408Z,93.09
2023-02-23T11:31:09.137Z,92.58
2023-02-23T11:33:39.756Z,92.40
2023-02-23T11:36:23.581Z,91.04
2023-02-23T11:39:03.937Z,91.58
2023-02-23T11:41:35.436Z,91.01
2023-02-23T11:44:06.393Z,91.36
2023-02-23T11:46:39.299Z,92.10
2023-02-23T11:49:14.835Z,91.30
2023-02-23T11:51:49.410Z,88.85
2023-02-23T11:54:26.177Z,87.76
2023-02-23T11:56:57.606Z,87.18
2023-02-23T11:59:28.499Z,86.96
2023-02-23T12:02:05.465Z,86.51
2023-02-23T12:04:33.278Z,85.81
2023-02-23T12:07:35.013Z,85.58
2023-02-23T12:10:13.692Z,84.98
2023-02-23T12:12:54.947Z,85.68
2023-02-23T12:15:32.625Z,86.09
2023-02-23T12:18:09.174Z,86.19
2023-02-23T12:20:42.350Z,86.13
2023-02-23T12:23:19.986Z,85.87
2023-02-23T12:26:01.256Z,85.50
2023-02-23T12:28:49.840Z,86.12
2023-02-23T12:31:28.795Z,85.93
2023-02-23T12:34:03.333Z,86.09
2023-02-23T12:36:43.337Z,86.48
2023-02-23T12:39:36.319Z,85.37
2023-02-23T12:42:27.236Z,84.50
2023-02-23T12:44:59.113Z,84.78
2023-02-23T12:47:42.255Z,84.86
2023-02-23T12:50:27.299Z,85.84
2023-02-23T12:52:58.884Z,85.33
2023-02-23T12:55:42.692Z,85.86
2023-02-23T12:58:23.178Z,84.89
2023-02-23T13:01:06.848Z,84.26
2023-02-23T13:03:50.289Z,84.88
2023-02-23T13:06:39.991Z,85.16
2023-02-23T13:09:17.908Z,85.58
2023-02-23T13:12:04.349Z,85.02
2023-02-23T13:14:48.264Z,83.59
2023-02-23T13:17:37.341Z,84.38
2023-02-23T13:20:22.261Z,84.29
2023-02-23T13:23:10.271Z,85.60
2023-02-23T13:26:11.905Z,84.63
2023-02-23T13:28:42.785Z,84.38
2023-02-23T13:31:23.177Z,83.99
2023-02-23T13:33:52.232Z,84.09
2023-02-23T13:36:22.507Z,84.14
2023-02-23T13:39:18.481Z,83.99
2023-02-23T13:41:51.706Z,84.63
2023-02-23T13:44:38.218Z,83.99
2023-02-23T13:47:11.148Z,83.40
2023-02-23T13:49:47.260Z,83.22
2023-02-23T13:52:31.425Z,83.84
2023-02-23T13:55:04.120Z,85.13
2023-02-23T13:57:34.162Z,84.69
2023-02-23T14:00:03.935Z,84.85
2023-02-23T14:02:42.556Z,84.72
2023-02-23T14:05:24.005Z,84.05
2023-02-23T14:07:59.418Z,84.80
2023-02-23T14:10:36.374Z,84.41
2023-02-23T14:13:23.002Z,84.91
2023-02-23T14:16:14.973Z,84.75
2023-02-23T14:19:10.829Z,84.93
2023-02-23T14:21:53.401Z,84.77
2023-02-23T14:24:25.491Z,84.29
2023-02-23T14:27:40.489Z,85.09
2023-02-23T14:30:12.190Z,85.47
2023-02-23T14:32:47.056Z,84.60
2023-02-23T14:35:38.694Z,85.44
2023-02-23T14:38:45.794Z,85.91
2023-02-23T14:41:15.425Z,85.45
2023-02-23T14:43:46.567Z,85.48
2023-02-23T14:46:20.825Z,85.30
2023-02-23T14:49:01.903Z,85.69
2023-02-23T14:51:42.419Z,85.62
2023-02-23T14:54:16.099Z,86.35
2023-02-23T14:56:49.083Z,86.03
2023-02-23T14:59:23.070Z,85.72
2023-02-23T15:01:53.285Z,86.01
2023-02-23T15:04:26.397Z,86.82
2023-02-23T15:06:58.203Z,86.46
2023-02-23T15:09:41.376Z,86.53
2023-02-23T15:12:19.674Z,86.39
2023-02-23T15:14:52.221Z,86.81
2023-02-23T15:17:26.286Z,86.39
2023-02-23T15:20:14.291Z,86.47
2023-02-23T15:22:49.447Z,86.90
2023-02-23T15:25:23.498Z,87.41
2023-02-23T15:27:52.638Z,87.90
2023-02-23T15:30:32.982Z,88.17
2023-02-23T15:33:02.748Z,88.78
2023-02-23T15:35:35.953Z,88.37
2023-02-23T15:38:18.097Z,89.93
2023-02-23T15:41:03.595Z,89.98
2023-02-23T15:43:35.346Z,89.23
2023-02-23T15:46:06.753Z,88.86
2023-02-23T15:48:52.846Z,89.83
2023-02-23T15:51:26.083Z,90.73
2023-02-23T15:53:54.577Z,91.63
2023-02-23T15:56:28.993Z,91.22
2023-02-23T15:59:04.667Z,91.64
2023-02-23T16:01:33.872Z,92.27
2023-02-23T16:04:03.732Z,91.98
2023-02-23T16:06:40.766Z,91.92
2023-02-23T16:09:27.042Z,91.80
2023-02-23T16:12:03.525Z,90.84
2023-02-23T16:14:50.599Z,91.26
2023-02-23T16:17:28.568Z,91.71
2023-02-23T16:20:14.634Z,93.63
2023-02-23T16:22:47.336Z,94.72
2023-02-23T16:25:23.505Z,95.06
2023-02-23T16:28:05.768Z,95.07
2023-02-23T16:30:36.023Z,94.17
2023-02-23T16:33:11.713Z,94.73
2023-02-23T16:35:48.726Z,95.41
2023-02-23T16:38:29.189Z,95.35
2023-02-23T16:40:58.161Z,95.02
2023-02-23T16:43:26.374Z,95.81
2023-02-23T16:45:54.790Z,96.59
2023-02-23T16:48:25.113Z,96.44
2023-02-23T16:50:53.521Z,96.50
2023-02-23T16:53:23.608Z,96.34
2023-02-23T16:55:56.037Z,96.45
2023-02-23T16:58:26.838Z,96.36
2023-02-23T17:00:57.584Z,96.08
2023-02-23T17:03:32.628Z,95.74
2023-02-23T17:06:04.709Z,95.56
2023-02-23T17:08:38.189Z,95.96
2023-02-23T17:11:08.433Z,96.36
2023-02-23T17:13:37.389Z,96.62
2023-02-23T17:16:10.164Z,97.36
2023-02-23T17:18:42.970Z,98.54
2023-02-23T17:21:14.942Z,98.59
2023-02-23T17:23:51.468Z,98.14
2023-02-23T17:26:23.885Z,97.60
2023-02-23T17:28:54.280Z,98.60
2023-02-23T17:31:25.698Z,98.70
2023-02-23T17:33:57.381Z,98.64
2023-02-23T17:36:29.221Z,98.98
2023-02-23T17:39:00.015Z,99.61
2023-02-23T17:41:31.267Z,99.55
2023-02-23T17:44:02.000Z,99.59
2023-02-23T17:46:31.079Z,100.00
2023-02-23T17:49:00.286Z,100.00
2023-02-23T17:51:29.110Z,99.51
2023-02-23T17:53:57.250Z,99.77
2023-02-23T17:56:26.422Z,100.00
2023-02-23T17:58:54.728Z,100.00
2023-02-23T18:01:23.856Z,99.72
2023-02-23T18:03:54.254Z,100.00
2023-02-23T18:06:22.330Z,100.00
2023-02-23T18:08:51.639Z,100.00
2023-02-23T18:11:21.091Z,100.00
2023-02-23T18:13:52.473Z,100.00
2023-02-23T18:16:22.789Z,100.00
2023-02-23T18:18:51.317Z,100.00
2023-02-23T18:21:24.744Z,100.00
2023-02-23T18:23:53.299Z,100.00
2023-02-23T18:26:25.747Z,100.00
2023-02-23T18:28:54.555Z,100.00
2023-02-23T18:31:26.276Z,100.00
2023-02-23T18:33:54.882Z,100.00
2023-02-23T18:36:28.724Z,100.00
2023-02-23T18:38:59.889Z,100.00
2023-02-23T18:41:31.645Z,100.00
2023-02-23T18:44:01.779Z,100.00
2023-02-23T18:46:30.961Z,100.00
2023-02-23T18:49:00.358Z,100.00
2023-02-23T18:51:28.659Z,100.00
2023-02-23T18:53:57.172Z,100.00
2023-02-23T18:56:28.915Z,100.00
2023-02-23T18:59:02.676Z,100.00
2023-02-23T19:01:35.730Z,100.00
2023-02-23T19:04:07.819Z,100.00
2023-02-23T19:06:39.981Z,100.00
2023-02-23T19:09:13.790Z,100.00
2023-02-23T19:11:44.114Z,100.00
2023-02-23T19:14:16.605Z,100.00
2023-02-23T19:16:47.893Z,100.00
2023-02-23T19:19:17.789Z,100.00
2023-02-23T19:21:46.689Z,100.00
2023-02-23T19:24:15.803Z,100.00
2023-02-23T19:26:45.040Z,100.00
2023-02-23T19:29:13.373Z,100.00
2023-02-23T19:31:42.204Z,100.00
2023-02-23T19:34:11.844Z,100.00
2023-02-23T19:36:40.367Z,100.00
2023-02-23T19:39:16.343Z,100.00
2023-02-23T19:41:47.911Z,100.00
2023-02-23T19:44:17.164Z,100.00
2023-02-23T19:46:46.727Z,100.00
2023-02-23T19:49:14.480Z,100.00
2023-02-23T19:51:43.464Z,100.00
2023-02-23T19:54:12.295Z,100.00
2023-02-23T19:56:40.693Z,100.00
2023-02-23T19:59:09.388Z,100.00
2023-02-23T20:01:37.822Z,100.00
2023-02-23T20:04:07.056Z,100.00
2023-02-23T20:06:41.243Z,100.00
2023-02-23T20:09:10.511Z,100.00
2023-02-23T20:11:40.743Z,100.00
2023-02-23T20:14:10.370Z,100.00
2023-02-23T20:16:40.276Z,100.00
2023-02-23T20:19:07.858Z,100.00
2023-02-23T20:21:36.925Z,100.00
2023-02-23T20:24:05.683Z,100.00
2023-02-23T20:26:39.132Z,100.00
2023-02-23T20:29:11.362Z,100.00
2023-02-23T20:31:42.110Z,100.00
2023-02-23T20:34:11.876Z,100.00
2023-02-23T20:36:40.612Z,100.00
2023-02-23T20:39:11.023Z,100.00
2023-02-23T20:41:43.421Z,100.00
2023-02-23T20:44:14.100Z,100.00
2023-02-23T20:46:44.390Z,100.00
2023-02-23T20:49:13.426Z,100.00
2023-02-23T20:51:43.842Z,100.00
2023-02-23T20:54:13.149Z,100.00
2023-02-23T20:56:41.723Z,100.00
2023-02-23T20:59:11.375Z,100.00
2023-02-23T21:01:41.812Z,100.00
2023-02-23T21:04:10.278Z,100.00
2023-02-23T21:06:38.531Z,100.00
2023-02-23T21:09:08.236Z,100.00
2023-02-23T21:11:37.219Z,100.00
2023-02-23T21:14:09.314Z,100.00
2023-02-23T21:16:41.505Z,100.00
2023-02-23T21:19:11.546Z,100.00
2023-02-23T21:21:41.640Z,100.00
2023-02-23T21:24:11.962Z,100.00
2023-02-23T21:26:40.670Z,100.00
2023-02-23T21:29:12.892Z,100.00
2023-02-23T21:31:43.756Z,100.00
2023-02-23T21:34:12.670Z,100.00
2023-02-23T21:36:40.932Z,100.00
2023-02-23T21:39:11.200Z,100.00
2023-02-23T21:41:40.592Z,100.00
2023-02-23T21:44:10.492Z,100.00
2023-02-23T21:46:39.131Z,100.00
2023-02-23T21:49:08.689Z,100.00
2023-02-23T21:51:37.687Z,100.00
2023-02-23T21:54:06.750Z,100.00
2023-02-23T21:56:37.557Z,100.00
2023-02-23T21:59:08.786Z,100.00
2023-02-23T22:01:38.866Z,100.00
2023-02-23T22:04:12.858Z,100.00
2023-02-23T22:06:43.278Z,100.00
2023-02-23T22:09:12.740Z,100.00
2023-02-23T22:11:46.016Z,100.00
2023-02-23T22:14:18.862Z,100.00
2023-02-23T22:16:47.643Z,100.00
2023-02-23T22:19:18.876Z,100.00
2023-02-23T22:21:50.561Z,100.00
2023-02-23T22:24:20.259Z,100.00
2023-02-23T22:26:55.230Z,100.00
2023-02-23T22:29:27.326Z,100.00
2023-02-23T22:31:57.433Z,100.00
2023-02-23T22:34:26.489Z,100.00
2023-02-23T22:36:54.315Z,100.00
2023-02-23T22:39:22.441Z,100.00
2023-02-23T22:41:51.192Z,100.00
2023-02-23T22:44:21.960Z,100.00
2023-02-23T22:46:51.755Z,100.00
2023-02-23T22:49:20.397Z,100.00
2023-02-23T22:51:49.769Z,100.00
2023-02-23T22:54:18.306Z,100.00
2023-02-23T22:56:47.465Z,100.00
2023-02-23T22:59:17.752Z,100.00
2023-02-23T23:01:50.655Z,100.00
2023-02-23T23:04:20.333Z,100.00
2023-02-23T23:06:49.982Z,100.00
2023-02-23T23:09:22.681Z,100.00
2023-02-23T23:11:52.370Z,100.00
2023-02-23T23:14:19.906Z,100.00
2023-02-23T23:16:48.954Z,100.00
2023-02-23T23:19:24.587Z,100.00
2023-02-23T23:21:56.245Z,100.00
2023-02-23T23:24:26.534Z,100.00
2023-02-23T23:26:55.989Z,100.00
2023-02-23T23:29:26.684Z,100.00
2023-02-23T23:31:57.071Z,100.00
2023-02-23T23:34:25.597Z,100.00
2023-02-23T23:36:55.472Z,100.00
2023-02-23T23:39:26.805Z,100.00
2023-02-23T23:41:54.769Z,100.00
2023-02-23T23:44:25.164Z,100.00
2023-02-23T23:46:54.086Z,100.00
2023-02-23T23:49:26.479Z,100.00
2023-02-23T23:51:56.756Z,100.00
2023-02-23T23:54:28.169Z,100.00
2023-02-23T23:56:55.290Z,100.00
2023-02-23T23:59:25.117Z,100.00
